Bras d'Or Lakes: Past 24 Hour Conditions

 

St. John's Int'l Airport

07:30 AM NDT 17 April 2014
This table is a summary of hourly weather conditions for the past 24 hours.
Date / Time
(NDT)
Wind(knots) Conditions Visibility(km) Pressure(kPa) Air tempC) Relative humidity(%) Dew pointC) Wind Chill
17 April 2014
7:30 NW 15 gust 21 Partly Cloudy 24 103.2 0 71 -5 -7
6:30 NW 11 gust 18 Partly Cloudy 24 103.0 -1 78 -4 -6
5:30 NW 13 gust 19 Mostly Cloudy 24 102.8 1 78 -3 *
4:30 NW 15 gust 20 Cloudy 24 102.7 2 79 -1 *
3:30 WNW 14 Cloudy 24 102.5 4 93 3 *
2:30 W 13 gust 19 Partly Cloudy 24 102.4 5 90 4 *
1:30 W 14 gust 19 Cloudy 24 102.3 6 91 5 *
0:30 WSW 17 gust 22 Partly Cloudy 24 102.1 7 95 6 *
16 April 2014
23:30 WSW 23 gust 31 Light Drizzle 19 102.0 9 95 8 *
22:30 SW 21 gust 33 Cloudy 24 101.9 12 89 11 *
21:30 SW 24 gust 36 Cloudy 24 101.9 14 86 12 *
20:30 SSW 19 gust 27 Cloudy 24 102.0 13 88 11 *
19:30 SSW 18 gust 26 Mostly Cloudy 24 102.0 14 82 11 *
18:30 SW 17 gust 28 Cloudy 24 102.0 14 80 11 *
17:30 SW 18 gust 34 Cloudy 24 102.0 16 72 11 *
16:30 SW 24 gust 39 Mostly Cloudy 24 102.0 17 64 10 *
15:30 SW 27 gust 39 Mostly Cloudy 24 102.1 17 62 10 *
14:30 SW 26 gust 43 Partly Cloudy 24 102.1 18 64 11 *
13:30 SW 27 gust 36 Mostly Cloudy 24 102.1 18 63 11 *
12:30 WSW 24 gust 31 Partly Cloudy 24 102.2 17 72 12 *
11:30 SW 21 gust 26 Cloudy 24 102.2 15 77 11 *
10:30 SW 24 gust 33 Cloudy 24 102.2 16 72 11 *
9:30 WSW 19 gust 26 Partly Cloudy 24 102.2 15 77 11 *
8:30 WSW 14 gust 21 Cloudy 24 102.3 12 93 11 *
7:30 SW 19 gust 26 Cloudy 16 102.2 11 97 11 *
 
Map of Atlantic - Newfoundland marine weather areas Southwestern Grand Banks - 44138 Banquereau - 44139 Tail of the Bank - 44140 Nickerson Bank - 44251 Northeast Burgeo Bank - 44255 Blanc-Sablon Airport Cap Whittle Chevery Natashquan Airport Heath Point Miscou Island Grand Étang Ingonish Beach North Mountain St.Paul Island J.A. Douglas McCurdy Sydney Airport Charlottetown Airport East Point North Cape Argentia Bonavista Burgeo Cape Race Corner Brook Daniel's Harbour Englee Ferolle Point La Scie Port aux Basques Rocky Harbour Sagona Island St. Anthony Airport St. John's Int'l Airport St. Lawrence Stephenville Airport Twillingate Winterland Wreckhouse Cartwright Airport Mary's Harbour Grates Cove Pool's Island Marticot Island Long Pond Îles de la Madeleine Airport
Legend: buoyBuoy land stationLand Station